Time;durP1;ratioP1;P1;durP2;ratioP2;P2;SDS_P1;SDS_P2;PMS_P1;PMS_P2;Temp;Humidity;BMP_temperature;BMP_pressure;BME280_temperature;BME280_humidity;BME280_pressure;Samples;Min_cycle;Max_cycle;Signal;HPM_P1;HPM_P2
2022/12/12 00:01:28;;;;;;;;;;;;;;;13.11;62.01;97327.78;5018195;28;19917;-78
2022/12/12 00:03:53;;;;;;;;;;;;;;;13.08;62.12;97327.28;5043027;28;19928;-78
2022/12/12 00:06:18;;;;;;;;;;;;;;;13.05;61.91;97331.06;5016724;28;19917;-78
2022/12/12 00:08:44;;;;;;;;;;;;;;;13.02;61.79;97344.50;5015088;28;19917;-78
2022/12/12 00:11:09;;;;;;;;;;;;;;;12.99;61.89;97350.06;4979180;28;19921;-78
2022/12/12 00:13:34;;;;;;;;;;;;;;;12.96;61.63;97359.06;4975470;28;19922;-78
2022/12/12 00:16:00;;;;;;;;;;;;;;;12.94;61.87;97365.47;4991924;28;19917;-77
2022/12/12 00:18:25;;;;;;;;;;;;;;;12.92;61.85;97364.81;4995278;28;19920;-77
2022/12/12 00:20:53;;;;;;;;;;;;;;;12.88;61.62;97364.31;4996765;28;19917;-77
2022/12/12 00:23:19;;;;;;;;;;;;;;;12.87;61.67;97374.97;4979310;28;19921;-77
2022/12/12 00:25:44;;;;;;;;;;;;;;;12.83;61.43;97379.72;4995450;28;19922;-78
2022/12/12 00:28:10;;;;;;;;;;;;;;;12.81;61.61;97379.88;4995538;28;19918;-78
2022/12/12 00:30:35;;;;;;;;;;;;;;;12.80;61.51;97388.72;4995546;28;19917;-77
2022/12/12 00:33:00;;;;;;;;;;;;;;;12.77;61.46;97394.28;4995074;28;19918;-78
2022/12/12 00:35:25;;;;;;;;;;;;;;;12.75;61.61;97393.63;4996332;28;19930;-77
2022/12/12 00:37:51;;;;;;;;;;;;;;;12.75;61.98;97393.63;4995535;28;20349;-77
2022/12/12 00:40:16;;;;;;;;;;;;;;;12.74;62.07;97391.97;4994644;28;19929;-76
2022/12/12 00:42:41;;;;;;;;;;;;;;;12.73;61.95;97382.50;4996306;28;20360;-76
2022/12/12 00:45:07;;;;;;;;;;;;;;;12.71;62.01;97394.13;4996317;28;19976;-77
2022/12/12 00:47:33;;;;;;;;;;;;;;;12.71;61.94;97397.53;4996165;28;19921;-77
2022/12/12 00:49:58;;;;;;;;;;;;;;;12.71;61.99;97397.53;4995005;28;19918;-79
2022/12/12 00:52:23;;;;;;;;;;;;;;;12.70;62.03;97400.31;4995758;28;19917;-78
2022/12/12 00:54:49;;;;;;;;;;;;;;;12.67;61.81;97399.69;4996650;28;19918;-78
2022/12/12 00:57:14;;;;;;;;;;;;;;;12.67;61.83;97402.28;4994949;28;20389;-77
2022/12/12 00:59:39;;;;;;;;;;;;;;;12.66;62.32;97400.66;4996072;28;20004;-78
2022/12/12 01:02:05;;;;;;;;;;;;;;;12.67;62.13;97406.72;4978492;28;19918;-78
2022/12/12 01:04:30;;;;;;;;;;;;;;;12.66;61.92;97400.66;4994588;28;19924;-78
2022/12/12 01:06:55;;;;;;;;;;;;;;;12.68;61.83;97410.97;4994890;28;19917;-78
2022/12/12 01:09:20;;;;;;;;;;;;;;;12.66;61.85;97411.13;4994169;28;19917;-78
2022/12/12 01:11:46;;;;;;;;;;;;;;;12.66;62.06;97407.69;4994712;28;19968;-78
2022/12/12 01:14:11;;;;;;;;;;;;;;;12.66;61.72;97411.13;4994554;28;19980;-77
2022/12/12 01:16:36;;;;;;;;;;;;;;;12.67;61.73;97409.34;4994386;28;19918;-78
2022/12/12 01:19:02;;;;;;;;;;;;;;;12.66;61.86;97415.56;4978951;28;19922;-78
2022/12/12 01:21:27;;;;;;;;;;;;;;;12.65;61.98;97413.91;4994567;28;19941;-78
2022/12/12 01:23:52;;;;;;;;;;;;;;;12.64;62.01;97420.94;4994716;28;19969;-77
2022/12/12 01:26:19;;;;;;;;;;;;;;;12.62;61.95;97422.91;4994473;28;19918;-77
2022/12/12 01:28:44;;;;;;;;;;;;;;;12.62;61.78;97425.53;4995224;28;20290;-78
2022/12/12 01:31:09;;;;;;;;;;;;;;;12.62;61.93;97438.63;4977992;28;19918;-77
2022/12/12 01:33:35;;;;;;;;;;;;;;;12.61;61.90;97439.59;4995707;28;19925;-77
2022/12/12 01:36:00;;;;;;;;;;;;;;;12.62;62.09;97437.81;4994710;28;19922;-78
2022/12/12 01:38:25;;;;;;;;;;;;;;;12.60;61.84;97443.22;4994488;28;20297;-78
2022/12/12 01:40:51;;;;;;;;;;;;;;;12.60;62.00;97458.91;4994059;28;20369;-71
2022/12/12 01:43:17;;;;;;;;;;;;;;;12.59;61.94;97462.50;4978177;28;19922;-78
2022/12/12 01:46:01;;;;;;;;;;;;;;;12.58;62.17;97460.84;4977943;28;19953;-77
2022/12/12 01:48:49;;;;;;;;;;;;;;;12.60;62.08;97463.31;4995205;28;19917;-77
2022/12/12 01:51:16;;;;;;;;;;;;;;;12.60;62.08;97464.16;4958009;28;20370;-77
2022/12/12 01:53:42;;;;;;;;;;;;;;;12.61;61.99;97473.63;4941438;28;20099;-77
2022/12/12 01:56:08;;;;;;;;;;;;;;;12.63;62.10;97481.31;4957214;28;20005;-77
2022/12/12 01:58:33;;;;;;;;;;;;;;;12.63;61.81;97487.41;4957308;28;20417;-77
2022/12/12 02:00:58;;;;;;;;;;;;;;;12.64;62.10;97472.50;4957100;28;19973;-77
2022/12/12 02:03:24;;;;;;;;;;;;;;;12.64;62.17;97456.78;4973499;28;20005;-76
2022/12/12 02:05:54;;;;;;;;;;;;;;;12.65;62.22;97461.03;4957436;28;20012;-76
2022/12/12 02:08:20;;;;;;;;;;;;;;;12.63;62.12;97463.84;4957197;28;19918;-77
2022/12/12 02:10:45;;;;;;;;;;;;;;;12.63;61.75;97468.22;4957124;28;19918;-78
2022/12/12 02:13:11;;;;;;;;;;;;;;;12.63;61.84;97470.84;4956796;28;19934;-77
2022/12/12 02:15:48;;;;;;;;;;;;;;;12.62;61.94;97475.28;4940915;28;19918;-77
2022/12/12 02:18:19;;;;;;;;;;;;;;;12.61;62.03;97475.44;4973166;28;19985;-77
2022/12/12 02:20:50;;;;;;;;;;;;;;;12.60;61.75;97479.03;4972861;28;19992;-77
2022/12/12 02:23:33;;;;;;;;;;;;;;;12.60;61.77;97494.72;4956907;28;19940;-78
2022/12/12 02:26:09;;;;;;;;;;;;;;;12.58;61.95;97494.09;4973290;28;19918;-78
2022/12/12 02:28:53;;;;;;;;;;;;;;;12.59;61.76;97490.50;4950614;28;20014;-77
2022/12/12 02:31:18;;;;;;;;;;;;;;;12.60;62.05;97489.50;4975083;28;19918;-77
2022/12/12 02:33:43;;;;;;;;;;;;;;;12.60;61.88;97477.25;4974791;28;19929;-77
2022/12/12 02:36:11;;;;;;;;;;;;;;;12.60;61.75;97486.88;4974863;28;19996;-77
2022/12/12 02:38:50;;;;;;;;;;;;;;;12.58;62.03;97484.41;4973674;28;20000;-77
2022/12/12 02:41:42;;;;;;;;;;;;;;;12.59;61.88;97487.88;4957689;28;20318;-77
2022/12/12 02:44:10;;;;;;;;;;;;;;;12.58;62.14;97504.56;4971195;28;19926;-77
2022/12/12 02:46:37;;;;;;;;;;;;;;;12.57;62.01;97502.91;4974410;28;19918;-77
2022/12/12 02:49:04;;;;;;;;;;;;;;;12.56;61.88;97514.38;4973744;28;19972;-77
2022/12/12 02:51:29;;;;;;;;;;;;;;;12.56;62.05;97515.19;4973497;28;19968;-77
2022/12/12 02:53:54;;;;;;;;;;;;;;;12.57;62.22;97516.00;4973268;28;19921;-77
2022/12/12 02:56:41;;;;;;;;;;;;;;;12.56;62.04;97522.22;4973258;28;19977;-77
2022/12/12 02:59:06;;;;;;;;;;;;;;;12.56;62.17;97532.69;4973362;28;19922;-77
2022/12/12 03:01:34;;;;;;;;;;;;;;;12.56;62.09;97530.88;4973670;28;19929;-77
2022/12/12 03:09:32;;;;;;;;;;;;;;;12.55;62.24;97537.09;4974528;28;19925;-77
2022/12/12 03:12:06;;;;;;;;;;;;;;;12.56;62.17;97523.03;4975016;28;19961;-77
2022/12/12 03:14:35;;;;;;;;;;;;;;;12.56;62.16;97523.03;4983944;28;19929;-77
2022/12/12 03:17:03;;;;;;;;;;;;;;;12.56;61.85;97527.47;4976971;28;19918;-77
2022/12/12 03:19:29;;;;;;;;;;;;;;;12.57;62.15;97531.69;4973343;28;19925;-77
2022/12/12 03:22:02;;;;;;;;;;;;;;;12.57;62.08;97536.94;4973282;28;19994;-77
2022/12/12 03:24:27;;;;;;;;;;;;;;;12.56;62.33;97528.28;4972988;28;19918;-77
2022/12/12 03:27:02;;;;;;;;;;;;;;;12.58;62.10;97533.34;4974222;28;19925;-78
2022/12/12 03:29:28;;;;;;;;;;;;;;;12.57;62.00;97534.31;4974193;28;19924;-77
2022/12/12 03:31:55;;;;;;;;;;;;;;;12.58;62.29;97538.59;4973132;28;19918;-77
2022/12/12 03:34:21;;;;;;;;;;;;;;;12.58;62.17;97542.00;4957058;28;19926;-77
2022/12/12 03:36:58;;;;;;;;;;;;;;;12.58;62.11;97542.00;4973031;28;19930;-77
2022/12/12 03:39:31;;;;;;;;;;;;;;;12.58;62.20;97549.06;4973058;28;19922;-77
2022/12/12 03:41:59;;;;;;;;;;;;;;;12.60;62.29;97560.19;4973019;28;20016;-76
2022/12/12 03:44:25;;;;;;;;;;;;;;;12.60;62.03;97561.03;4972435;28;20013;-76
2022/12/12 03:46:51;;;;;;;;;;;;;;;12.61;62.40;97561.81;4972582;28;20390;-77
2022/12/12 03:49:19;;;;;;;;;;;;;;;12.63;62.41;97557.25;4956525;28;19922;-77
2022/12/12 03:51:49;;;;;;;;;;;;;;;12.62;62.29;97553.81;4972560;28;19922;-77
2022/12/12 03:54:22;;;;;;;;;;;;;;;12.64;62.20;97559.69;4976623;28;19918;-77
2022/12/12 03:56:47;;;;;;;;;;;;;;;12.63;62.43;97565.09;4960470;28;19925;-77
2022/12/12 03:59:17;;;;;;;;;;;;;;;12.65;62.23;97563.13;4978072;28;19922;-77
2022/12/12 04:01:45;;;;;;;;;;;;;;;12.64;62.22;97562.31;4977424;28;19942;-76
2022/12/12 04:04:13;;;;;;;;;;;;;;;12.65;62.19;97566.59;4976396;28;19918;-76
2022/12/12 04:06:46;;;;;;;;;;;;;;;12.65;62.13;97568.38;4976342;28;19924;-77
2022/12/12 04:14:58;;;;;;;;;;;;;;;12.65;62.10;97574.44;4997171;28;20464;-76
2022/12/12 04:17:27;;;;;;;;;;;;;;;12.65;62.41;97574.44;4997036;28;19918;-77
2022/12/12 04:25:28;;;;;;;;;;;;;;;12.67;62.26;97566.44;4996532;28;19976;-77
2022/12/12 04:27:53;;;;;;;;;;;;;;;12.66;62.03;97570.81;4995901;28;19922;-73
2022/12/12 04:30:19;;;;;;;;;;;;;;;12.68;63.21;97570.66;4995386;28;19918;-77
2022/12/12 04:33:01;;;;;;;;;;;;;;;13.07;73.52;97587.66;4995438;28;19922;-74
2022/12/12 04:35:30;;;;;;;;;;;;;;;13.32;75.29;97591.13;4994790;28;19926;-73
2022/12/12 04:37:56;;;;;;;;;;;;;;;13.39;73.64;97592.97;4995411;28;19917;-74
2022/12/12 04:40:22;;;;;;;;;;;;;;;13.36;70.99;97588.03;4978809;28;20385;-72
2022/12/12 04:42:51;;;;;;;;;;;;;;;13.34;69.63;97581.31;4996263;28;19949;-73
2022/12/12 04:45:18;;;;;;;;;;;;;;;13.28;68.64;97574.88;4978924;28;19922;-72
2022/12/12 04:47:43;;;;;;;;;;;;;;;13.22;67.89;97580.78;4978563;28;19995;-76
2022/12/12 04:50:09;;;;;;;;;;;;;;;13.15;67.38;97585.84;4978357;28;20377;-77
2022/12/12 04:52:34;;;;;;;;;;;;;;;13.11;66.75;97589.78;4995223;28;19924;-76
2022/12/12 04:55:06;;;;;;;;;;;;;;;13.03;66.73;97582.72;4978729;28;19944;-77
2022/12/12 04:57:33;;;;;;;;;;;;;;;13.03;68.72;97595.00;4996041;28;19918;-71
2022/12/12 04:59:58;;;;;;;;;;;;;;;13.03;69.40;97590.59;4979037;28;20016;-77
2022/12/12 05:02:23;;;;;;;;;;;;;;;12.99;67.84;97596.31;4994836;28;20012;-76
2022/12/12 05:04:56;;;;;;;;;;;;;;;12.92;67.04;97596.13;4993299;28;19925;-75
2022/12/12 05:07:25;;;;;;;;;;;;;;;12.84;66.70;97609.22;4994047;28;19924;-78
2022/12/12 05:09:51;;;;;;;;;;;;;;;12.77;66.31;97610.81;4976658;28;19922;-77
2022/12/12 05:12:16;;;;;;;;;;;;;;;12.71;65.72;97609.63;4996035;28;19922;-76
2022/12/12 05:14:42;;;;;;;;;;;;;;;12.64;65.68;97608.63;4997686;28;19921;-76
2022/12/12 05:17:08;;;;;;;;;;;;;;;12.57;65.06;97605.00;4997563;28;19925;-76
2022/12/12 05:19:33;;;;;;;;;;;;;;;12.52;65.18;97607.28;4997231;28;20299;-76
2022/12/12 05:21:59;;;;;;;;;;;;;;;12.47;64.69;97613.78;5014902;28;20008;-75
2022/12/12 05:24:29;;;;;;;;;;;;;;;12.41;65.03;97618.81;4981560;28;20008;-76
2022/12/12 05:26:54;;;;;;;;;;;;;;;12.36;64.73;97627.16;5015654;28;20389;-76
2022/12/12 05:29:20;;;;;;;;;;;;;;;12.31;64.37;97625.00;4981302;28;19940;-76
2022/12/12 05:31:45;;;;;;;;;;;;;;;12.30;64.47;97636.47;4997642;28;19917;-76
2022/12/12 05:34:10;;;;;;;;;;;;;;;12.25;64.48;97641.31;5015026;28;19953;-76
2022/12/12 05:36:36;;;;;;;;;;;;;;;12.22;64.28;97643.41;4997400;28;19978;-77
2022/12/12 05:39:01;;;;;;;;;;;;;;;12.20;64.14;97654.03;4981075;28;19924;-75
2022/12/12 05:41:26;;;;;;;;;;;;;;;12.18;63.96;97660.41;4997332;28;19925;-75
2022/12/12 05:43:51;;;;;;;;;;;;;;;12.15;64.08;97669.38;5014614;28;20028;-76
2022/12/12 05:46:17;;;;;;;;;;;;;;;12.16;63.92;97672.81;4997328;28;20312;-75
2022/12/12 05:48:43;;;;;;;;;;;;;;;12.16;63.84;97678.03;5014766;28;19926;-75
2022/12/12 05:51:08;;;;;;;;;;;;;;;12.16;63.49;97686.72;4997311;28;19957;-75
2022/12/12 05:53:33;;;;;;;;;;;;;;;12.17;63.52;97680.50;4997136;28;20038;-75
2022/12/12 05:55:59;;;;;;;;;;;;;;;12.19;63.39;97686.44;4997053;28;19921;-74
2022/12/12 05:58:24;;;;;;;;;;;;;;;12.24;63.02;97691.16;5014736;28;20024;-75
2022/12/12 06:00:49;;;;;;;;;;;;;;;12.28;62.72;97687.28;5014416;28;19984;-76
2022/12/12 06:03:15;;;;;;;;;;;;;;;12.35;62.60;97698.78;4980856;28;19918;-75
2022/12/12 06:05:40;;;;;;;;;;;;;;;12.42;62.39;97699.00;4997164;28;19940;-77
2022/12/12 06:08:05;;;;;;;;;;;;;;;12.64;61.88;97702.88;4996642;28;19917;-76
2022/12/12 06:10:31;;;;;;;;;;;;;;;12.85;61.33;97708.53;5014379;28;19925;-75
2022/12/12 06:12:56;;;;;;;;;;;;;;;13.01;60.90;97712.22;4996596;28;19965;-76
2022/12/12 06:15:21;;;;;;;;;;;;;;;13.16;60.96;97701.97;4980934;28;20020;-77
2022/12/12 06:17:47;;;;;;;;;;;;;;;13.21;60.58;97708.34;4996990;28;19923;-80
2022/12/12 06:20:12;;;;;;;;;;;;;;;13.27;60.62;97706.09;5004112;28;19974;-78
2022/12/12 06:22:37;;;;;;;;;;;;;;;13.34;60.45;97707.94;4990502;28;19917;-77
2022/12/12 06:25:03;;;;;;;;;;;;;;;13.41;60.45;97707.31;4997355;28;19950;-78
2022/12/12 06:27:28;;;;;;;;;;;;;;;13.49;60.39;97707.31;5014186;28;19921;-78
2022/12/12 06:29:53;;;;;;;;;;;;;;;13.68;62.91;97719.34;4980361;28;19921;-78
2022/12/12 06:32:19;;;;;;;;;;;;;;;13.79;61.92;97711.16;4996810;28;19921;-78
2022/12/12 06:34:44;;;;;;;;;;;;;;;13.97;61.05;97702.31;4996469;28;19918;-78
2022/12/12 06:37:12;;;;;;;;;;;;;;;14.13;62.51;97707.53;5002130;28;19925;-78
2022/12/12 06:39:38;;;;;;;;;;;;;;;14.21;62.26;97722.47;5014444;28;19921;-81
2022/12/12 06:42:03;;;;;;;;;;;;;;;14.44;65.50;97727.88;4979901;28;19917;-79
2022/12/12 06:44:28;;;;;;;;;;;;;;;14.43;63.86;97726.22;4980266;28;19967;-79
2022/12/12 06:46:54;;;;;;;;;;;;;;;14.35;63.27;97729.66;4996239;28;19917;-81
2022/12/12 06:49:19;;;;;;;;;;;;;;;14.29;62.85;97731.16;4995505;28;20404;-79
2022/12/12 06:51:45;;;;;;;;;;;;;;;14.24;62.50;97741.31;4996339;28;19918;-72
2022/12/12 06:54:14;;;;;;;;;;;;;;;14.18;62.19;97749.84;5013628;28;19917;-76
2022/12/12 06:56:40;;;;;;;;;;;;;;;14.10;62.44;97748.06;4995914;28;19919;-80
2022/12/12 06:59:05;;;;;;;;;;;;;;;14.04;61.93;97748.72;4996457;28;19925;-81
2022/12/12 07:01:30;;;;;;;;;;;;;;;13.99;61.86;97758.06;4996183;28;20360;-83
2022/12/12 07:03:56;;;;;;;;;;;;;;;13.92;61.69;97755.25;4996280;28;19925;-82
2022/12/12 07:06:22;;;;;;;;;;;;;;;13.87;61.86;97757.56;4995206;28;19917;-80
2022/12/12 07:08:48;;;;;;;;;;;;;;;13.84;61.71;97763.94;5012100;28;19918;-79
2022/12/12 07:11:15;;;;;;;;;;;;;;;13.82;61.83;97772.94;4979712;28;20083;-81
2022/12/12 07:13:40;;;;;;;;;;;;;;;13.80;61.68;97767.84;4995650;28;19921;-79
2022/12/12 07:16:05;;;;;;;;;;;;;;;13.84;61.60;97768.38;5013611;28;19925;-81
2022/12/12 07:18:31;;;;;;;;;;;;;;;13.93;61.34;97775.25;4995820;28;20373;-81
2022/12/12 07:20:56;;;;;;;;;;;;;;;13.97;61.29;97778.41;4979508;28;20278;-79
2022/12/12 07:23:21;;;;;;;;;;;;;;;14.02;61.17;97776.09;4979414;28;19917;-77
2022/12/12 07:25:47;;;;;;;;;;;;;;;14.11;61.15;97781.19;4979555;28;19924;-79
2022/12/12 07:28:12;;;;;;;;;;;;;;;14.16;60.99;97791.19;4995600;28;20388;-77
2022/12/12 07:30:38;;;;;;;;;;;;;;;14.22;60.93;97792.34;5013348;28;20296;-76
2022/12/12 07:33:03;;;;;;;;;;;;;;;14.29;60.79;97788.06;4995436;28;20024;-78
2022/12/12 07:35:28;;;;;;;;;;;;;;;14.39;60.54;97796.63;4995740;28;19988;-73
2022/12/12 07:37:55;;;;;;;;;;;;;;;14.47;60.38;97793.19;4979147;28;20392;-72
2022/12/12 07:40:20;;;;;;;;;;;;;;;14.62;60.05;97803.84;4994783;28;20020;-73
2022/12/12 07:42:46;;;;;;;;;;;;;;;14.85;59.32;97809.25;5011061;28;20476;-75
2022/12/12 07:45:12;;;;;;;;;;;;;;;15.16;58.63;97811.97;5011672;28;19917;-73
2022/12/12 07:47:37;;;;;;;;;;;;;;;15.27;58.61;97815.22;4978658;28;20416;-73
2022/12/12 07:50:03;;;;;;;;;;;;;;;15.64;57.58;97811.94;5012461;28;19921;-73
2022/12/12 07:52:28;;;;;;;;;;;;;;;16.08;56.55;97805.31;4994989;28;19917;-72
2022/12/12 07:54:53;;;;;;;;;;;;;;;16.43;56.53;97801.28;5012661;28;19917;-73
2022/12/12 07:57:19;;;;;;;;;;;;;;;16.79;55.75;97813.81;5012699;28;19924;-73
2022/12/12 07:59:44;;;;;;;;;;;;;;;17.26;54.66;97817.13;4978983;28;19917;-73
2022/12/12 08:02:10;;;;;;;;;;;;;;;17.64;53.96;97821.47;4995171;28;19926;-73
2022/12/12 08:04:35;;;;;;;;;;;;;;;18.13;52.94;97820.00;4995107;28;19918;-73
2022/12/12 08:07:00;;;;;;;;;;;;;;;18.29;52.15;97819.75;5012772;28;19917;-73
2022/12/12 08:09:25;;;;;;;;;;;;;;;18.71;51.04;97820.72;4995088;28;20404;-75
2022/12/12 08:11:53;;;;;;;;;;;;;;;19.12;50.10;97835.09;4979008;28;19971;-73
2022/12/12 08:14:18;;;;;;;;;;;;;;;19.49;49.07;97830.41;4991839;28;19922;-72
2022/12/12 08:16:44;;;;;;;;;;;;;;;19.52;48.41;97828.16;4991740;28;20439;-73
2022/12/12 08:19:09;;;;;;;;;;;;;;;19.40;48.39;97823.63;4993039;28;19918;-73
2022/12/12 08:21:34;;;;;;;;;;;;;;;19.63;47.61;97823.34;4991813;28;19964;-75
2022/12/12 08:24:01;;;;;;;;;;;;;;;19.61;46.86;97822.69;4991677;28;20016;-74
2022/12/12 08:26:26;;;;;;;;;;;;;;;19.69;46.19;97827.84;4991688;28;19953;-73
2022/12/12 08:28:51;;;;;;;;;;;;;;;20.58;44.73;97824.19;4992063;28;20381;-73
2022/12/12 08:31:17;;;;;;;;;;;;;;;21.14;43.40;97820.28;4991799;28;19952;-75
2022/12/12 08:33:42;;;;;;;;;;;;;;;21.49;42.51;97820.03;4975559;28;19933;-73
2022/12/12 08:36:14;;;;;;;;;;;;;;;21.57;41.79;97824.28;4990882;28;20393;-73
2022/12/12 08:38:40;;;;;;;;;;;;;;;21.32;41.44;97824.94;4976245;28;19918;-75
2022/12/12 08:41:05;;;;;;;;;;;;;;;21.08;41.79;97822.94;4978993;28;19968;-74
2022/12/12 08:43:31;;;;;;;;;;;;;;;20.85;41.85;97831.34;4995286;28;20008;-74
2022/12/12 08:46:00;;;;;;;;;;;;;;;20.61;41.80;97825.63;4995553;28;19918;-77
2022/12/12 08:48:25;;;;;;;;;;;;;;;20.36;42.39;97826.19;4996606;28;19926;-75
2022/12/12 08:50:51;;;;;;;;;;;;;;;20.11;42.67;97830.44;4995207;28;19925;-73
2022/12/12 08:53:16;;;;;;;;;;;;;;;19.82;42.95;97830.56;4994863;28;19980;-74
2022/12/12 08:55:41;;;;;;;;;;;;;;;19.63;43.16;97828.63;4994822;28;20381;-75
2022/12/12 08:58:07;;;;;;;;;;;;;;;19.40;43.46;97827.09;4995368;28;20005;-74
2022/12/12 09:00:32;;;;;;;;;;;;;;;19.25;43.72;97829.88;4994292;28;19921;-74
2022/12/12 09:02:57;;;;;;;;;;;;;;;19.22;43.65;97835.53;4978661;28;19918;-73
2022/12/12 09:05:23;;;;;;;;;;;;;;;19.06;43.83;97841.97;4978578;28;20380;-74
2022/12/12 09:07:48;;;;;;;;;;;;;;;19.09;43.75;97836.28;4994790;28;19924;-74
2022/12/12 09:10:14;;;;;;;;;;;;;;;19.64;42.96;97841.66;4996148;28;19922;-73
2022/12/12 09:12:39;;;;;;;;;;;;;;;19.70;42.73;97840.88;5001825;28;19922;-74
2022/12/12 09:15:05;;;;;;;;;;;;;;;20.37;41.62;97833.13;5015418;28;19975;-75
2022/12/12 09:17:30;;;;;;;;;;;;;;;20.30;41.41;97834.94;5015429;28;19924;-74
2022/12/12 09:19:56;;;;;;;;;;;;;;;20.01;41.38;97842.22;5015406;28;19917;-73
2022/12/12 09:22:21;;;;;;;;;;;;;;;19.98;41.11;97850.56;4998387;28;20067;-74
2022/12/12 09:24:46;;;;;;;;;;;;;;;20.30;40.78;97852.69;4981541;28;19940;-73
2022/12/12 09:27:11;;;;;;;;;;;;;;;21.40;38.88;97845.13;5016931;28;20404;-74
2022/12/12 09:29:37;;;;;;;;;;;;;;;22.30;37.31;97844.38;5021493;28;19918;-75
2022/12/12 09:32:05;;;;;;;;;;;;;;;21.61;37.78;97836.09;5017561;28;20396;-73
2022/12/12 09:34:31;;;;;;;;;;;;;;;21.59;37.74;97834.69;4998024;28;20385;-74
2022/12/12 09:36:56;;;;;;;;;;;;;;;21.28;38.24;97829.03;4981346;28;19926;-74
2022/12/12 09:39:21;;;;;;;;;;;;;;;21.45;37.86;97829.38;5015642;28;19968;-74
2022/12/12 09:41:47;;;;;;;;;;;;;;;22.80;35.60;97829.47;4997710;28;20300;-75
2022/12/12 09:44:14;;;;;;;;;;;;;;;21.67;37.57;97822.00;4997494;28;19924;-73
2022/12/12 09:46:54;;;;;;;;;;;;;;;22.44;36.27;97821.19;5015033;28;20402;-75
2022/12/12 09:49:28;;;;;;;;;;;;;;;22.39;36.30;97824.50;4981192;28;19918;-74
2022/12/12 09:51:53;;;;;;;;;;;;;;;23.09;34.85;97817.38;4996589;28;20311;-74
2022/12/12 09:54:19;;;;;;;;;;;;;;;22.58;35.56;97816.56;4997179;28;19968;-75
2022/12/12 09:56:44;;;;;;;;;;;;;;;24.20;33.00;97825.28;4997130;28;19918;-72
2022/12/12 09:59:25;;;;;;;;;;;;;;;24.00;32.95;97817.56;4997131;28;20300;-73
2022/12/12 10:02:01;;;;;;;;;;;;;;;23.54;34.04;97827.75;5014883;28;20012;-75
2022/12/12 10:04:41;;;;;;;;;;;;;;;25.40;31.01;97815.31;4997124;28;19917;-74
2022/12/12 10:07:33;;;;;;;;;;;;;;;25.67;30.47;97804.09;4996615;28;20415;-73
2022/12/12 10:10:11;;;;;;;;;;;;;;;24.27;32.57;97804.66;4998763;28;19948;-73
2022/12/12 10:12:37;;;;;;;;;;;;;;;25.69;30.51;97793.97;4981020;28;20013;-72
2022/12/12 10:15:11;;;;;;;;;;;;;;;27.15;28.56;97791.59;5014947;28;20078;-74
2022/12/12 10:17:39;;;;;;;;;;;;;;;27.91;27.53;97790.06;4980844;28;19924;-77
2022/12/12 10:20:06;;;;;;;;;;;;;;;27.26;28.33;97787.16;4996918;28;19976;-73
2022/12/12 10:22:44;;;;;;;;;;;;;;;27.47;28.23;97787.44;4996822;28;19918;-75
2022/12/12 10:25:18;;;;;;;;;;;;;;;27.62;28.02;97785.75;4997282;28;20349;-73
2022/12/12 10:27:43;;;;;;;;;;;;;;;27.65;28.04;97779.06;4996822;28;19921;-75
2022/12/12 10:30:15;;;;;;;;;;;;;;;27.17;28.61;97786.00;5014027;28;20312;-72
2022/12/12 10:32:47;;;;;;;;;;;;;;;26.83;29.16;97780.69;4996739;28;19971;-73
2022/12/12 10:35:17;;;;;;;;;;;;;;;26.40;29.63;97776.81;4996479;28;20012;-74
2022/12/12 10:37:54;;;;;;;;;;;;;;;25.87;30.62;97776.13;4996812;28;20008;-78
2022/12/12 10:40:26;;;;;;;;;;;;;;;25.44;30.87;97768.38;5013880;28;20023;-75
2022/12/12 10:42:58;;;;;;;;;;;;;;;25.45;30.98;97772.66;4980108;28;19980;-74
2022/12/12 10:45:26;;;;;;;;;;;;;;;25.24;31.16;97773.28;5013802;28;19917;-74
2022/12/12 10:47:51;;;;;;;;;;;;;;;25.01;31.65;97771.44;4996039;28;19961;-75
2022/12/12 10:50:31;;;;;;;;;;;;;;;24.79;32.01;97772.03;4996064;28;19928;-74
2022/12/12 10:52:56;;;;;;;;;;;;;;;24.56;32.36;97771.00;4980434;28;20376;-73
2022/12/12 10:55:40;;;;;;;;;;;;;;;24.33;32.67;97774.41;4995956;28;19975;-73
2022/12/12 10:58:06;;;;;;;;;;;;;;;24.31;32.89;97778.38;5013958;28;19924;-73
2022/12/12 11:00:32;;;;;;;;;;;;;;;24.26;32.93;97775.56;4996094;28;20012;-74
2022/12/12 11:02:57;;;;;;;;;;;;;;;24.34;32.79;97765.38;5012664;28;20016;-73
2022/12/12 11:05:24;;;;;;;;;;;;;;;24.14;33.03;97765.69;4996142;28;19928;-73
2022/12/12 11:07:56;;;;;;;;;;;;;;;23.77;33.22;97768.44;4996120;28;19917;-73
2022/12/12 11:10:29;;;;;;;;;;;;;;;23.76;33.49;97764.13;4979362;28;19918;-75
2022/12/12 11:12:59;;;;;;;;;;;;;;;23.79;33.44;97758.34;4979365;28;19984;-73
2022/12/12 11:15:50;;;;;;;;;;;;;;;23.69;33.50;97760.78;4995853;28;19918;-72
2022/12/12 11:18:17;;;;;;;;;;;;;;;23.49;33.72;97755.69;5011265;28;19918;-74
2022/12/12 11:20:46;;;;;;;;;;;;;;;23.28;33.97;97755.13;4995731;28;20064;-73
2022/12/12 11:23:14;;;;;;;;;;;;;;;23.17;33.60;97757.72;4995985;28;19917;-73
2022/12/12 11:25:40;;;;;;;;;;;;;;;23.06;34.24;97748.59;4995485;28;19918;-74
2022/12/12 11:28:05;;;;;;;;;;;;;;;22.97;34.42;97745.41;4995554;28;19918;-73
2022/12/12 11:30:35;;;;;;;;;;;;;;;22.83;34.32;97747.38;4996514;28;20284;-74
2022/12/12 11:33:00;;;;;;;;;;;;;;;22.71;34.86;97747.31;4995699;28;20010;-75
2022/12/12 11:35:28;;;;;;;;;;;;;;;22.63;34.84;97749.41;4995590;28;19964;-73
2022/12/12 11:37:55;;;;;;;;;;;;;;;22.63;34.79;97752.91;5012878;28;19921;-74
2022/12/12 11:40:23;;;;;;;;;;;;;;;22.59;34.97;97749.06;4995506;28;19980;-73
2022/12/12 11:42:48;;;;;;;;;;;;;;;22.46;35.28;97754.50;5013289;28;19921;-73
2022/12/12 11:45:14;;;;;;;;;;;;;;;22.39;35.10;97755.38;4995374;28;19917;-75
2022/12/12 11:47:39;;;;;;;;;;;;;;;22.27;35.60;97751.75;5012915;28;19918;-73
2022/12/12 11:50:21;;;;;;;;;;;;;;;22.18;35.27;97751.19;5012809;28;19917;-74
2022/12/12 11:52:46;;;;;;;;;;;;;;;;;;4996053;28;19918;-74
2022/12/12 11:55:14;;;;;;;;;;;;;;;22.03;35.65;97740.88;5012729;28;20324;-73
2022/12/12 11:57:53;;;;;;;;;;;;;;;21.78;36.07;97737.38;4995649;28;19980;-73
2022/12/12 12:00:19;;;;;;;;;;;;;;;21.58;36.18;97743.59;4995338;28;19925;-74
2022/12/12 12:02:44;;;;;;;;;;;;;;;21.50;36.73;97743.84;4995291;28;19922;-74
2022/12/12 12:05:16;;;;;;;;;;;;;;;21.36;36.77;97740.38;5012587;28;20384;-74
2022/12/12 12:07:41;;;;;;;;;;;;;;;21.20;37.26;97732.91;4995248;28;19925;-73
2022/12/12 12:10:06;;;;;;;;;;;;;;;21.13;37.10;97735.59;5012602;28;20309;-74
2022/12/12 12:12:38;;;;;;;;;;;;;;;20.99;37.64;97732.16;4994896;28;19921;-74
2022/12/12 12:15:13;;;;;;;;;;;;;;;20.93;37.61;97738.28;5016155;28;20013;-73
2022/12/12 12:17:51;;;;;;;;;;;;;;;20.86;37.78;97730.34;4999314;28;20011;-75
2022/12/12 12:20:20;;;;;;;;;;;;;;;20.65;38.33;97730.59;4998786;28;19928;-74
2022/12/12 12:23:00;;;;;;;;;;;;;;;20.45;38.65;97735.88;4998884;28;19924;-75
2022/12/12 12:25:32;;;;;;;;;;;;;;;20.20;39.20;97739.97;5016649;28;19923;-74
2022/12/12 12:28:00;;;;;;;;;;;;;;;20.02;39.30;97745.88;5004622;28;19917;-74
2022/12/12 12:30:35;;;;;;;;;;;;;;;19.81;39.67;97738.88;5001562;28;19921;-78
2022/12/12 12:33:10;;;;;;;;;;;;;;;19.65;40.11;97744.53;4998813;28;19917;-75
2022/12/12 12:35:48;;;;;;;;;;;;;;;19.46;40.43;97746.09;4982510;28;19929;-76
2022/12/12 12:38:34;;;;;;;;;;;;;;;19.23;41.39;97751.69;4982744;28;19921;-74
2022/12/12 12:41:03;;;;;;;;;;;;;;;19.02;41.41;97747.31;4998579;28;19922;-74
2022/12/12 12:43:28;;;;;;;;;;;;;;;18.85;41.88;97757.38;4998614;28;19918;-75
2022/12/12 12:46:03;;;;;;;;;;;;;;;18.68;42.08;97762.97;4998595;28;19918;-74
2022/12/12 12:48:38;;;;;;;;;;;;;;;18.48;42.39;97764.63;4998484;28;19917;-74
2022/12/12 12:51:07;;;;;;;;;;;;;;;18.31;42.87;97766.72;4998857;28;19922;-74
2022/12/12 12:53:36;;;;;;;;;;;;;;;18.19;43.15;97763.78;4982207;28;20380;-74
2022/12/12 12:56:21;;;;;;;;;;;;;;;18.06;43.43;97764.50;4998339;28;19968;-74
2022/12/12 12:58:46;;;;;;;;;;;;;;;17.90;43.89;97755.81;5008365;28;20304;-73
2022/12/12 13:01:32;;;;;;;;;;;;;;;17.79;44.09;97769.47;4997904;28;19917;-74
2022/12/12 13:04:09;;;;;;;;;;;;;;;17.65;44.27;97768.50;5008227;28;19937;-74
2022/12/12 13:06:50;;;;;;;;;;;;;;;17.54;44.61;97766.34;5015971;28;19917;-74
2022/12/12 13:09:24;;;;;;;;;;;;;;;17.45;44.69;97765.63;5015568;28;19918;-73